TimeEDT,TemperatureF,Dew PointF,Humidity,Sea Level PressureIn,VisibilityMPH,Wind Direction,Wind SpeedMPH,Gust SpeedMPH,PrecipitationIn,Events,Conditions,WindDirDegrees,DateUTC
12:20 AM,73.4,71.6,94,30.09,8.0,South,4.6,-,N/A,,Mostly Cloudy,180,2013-05-19 04:20:00
12:24 AM,73.4,71.6,94,30.09,8.0,South,5.8,-,N/A,,Mostly Cloudy,170,2013-05-19 04:24:00
12:34 AM,71.6,69.8,94,30.09,10.0,South,6.9,-,N/A,,Scattered Clouds,180,2013-05-19 04:34:00
12:56 AM,71.1,69.1,93,30.09,10.0,South,5.8,-,N/A,,Scattered Clouds,170,2013-05-19 04:56:00
1:56 AM,71.1,69.1,93,30.08,10.0,Calm,Calm,-,N/A,,Partly Cloudy,0,2013-05-19 05:56:00
2:56 AM,71.1,69.1,93,30.07,10.0,SE,5.8,-,N/A,,Scattered Clouds,140,2013-05-19 06:56:00
3:56 AM,70.0,69.1,97,30.06,10.0,SE,6.9,-,N/A,,Partly Cloudy,130,2013-05-19 07:56:00
4:56 AM,69.1,68.0,96,30.07,10.0,SSE,3.5,-,N/A,,Partly Cloudy,160,2013-05-19 08:56:00
5:56 AM,68.0,66.9,96,30.07,9.0,Calm,Calm,-,N/A,,Scattered Clouds,0,2013-05-19 09:56:00
6:56 AM,69.1,68.0,96,30.08,10.0,SSE,3.5,-,N/A,,Scattered Clouds,150,2013-05-19 10:56:00
7:56 AM,72.0,69.1,91,30.09,10.0,SE,5.8,-,N/A,,Partly Cloudy,140,2013-05-19 11:56:00
8:56 AM,75.9,70.0,82,30.11,10.0,South,6.9,-,N/A,,Scattered Clouds,190,2013-05-19 12:56:00
9:56 AM,79.0,71.1,77,30.11,10.0,SSE,6.9,-,N/A,,Scattered Clouds,160,2013-05-19 13:56:00
10:56 AM,81.0,71.1,72,30.11,10.0,South,8.1,-,N/A,,Mostly Cloudy,180,2013-05-19 14:56:00
11:56 AM,82.9,70.0,65,30.10,10.0,SSE,4.6,-,N/A,,Mostly Cloudy,160,2013-05-19 15:56:00
12:56 PM,84.0,71.1,65,30.09,10.0,SW,5.8,-,0.00,Rain,Light Rain,220,2013-05-19 16:56:00
1:56 PM,82.0,70.0,67,30.06,10.0,East,10.4,-,0.00,,Mostly Cloudy,100,2013-05-19 17:56:00
2:56 PM,82.9,71.1,67,30.04,10.0,East,10.4,-,0.00,,Mostly Cloudy,100,2013-05-19 18:56:00
3:56 PM,82.0,70.0,67,30.05,10.0,SE,9.2,-,N/A,Thunderstorm,Thunderstorm,130,2013-05-19 19:56:00
4:08 PM,80.6,69.8,70,30.04,10.0,SE,10.4,-,N/A,Thunderstorm,Thunderstorm,140,2013-05-19 20:08:00
4:56 PM,79.0,70.0,74,30.04,10.0,ENE,5.8,-,N/A,Thunderstorm,Thunderstorm,70,2013-05-19 20:56:00
5:34 PM,78.8,69.8,74,30.03,10.0,ESE,10.4,-,0.00,,Mostly Cloudy,110,2013-05-19 21:34:00
5:56 PM,78.1,69.1,74,30.04,10.0,ESE,12.7,24.2,0.00,Rain,Light Rain,120,2013-05-19 21:56:00
6:56 PM,78.1,69.1,74,30.03,10.0,SE,9.2,-,0.00,,Mostly Cloudy,140,2013-05-19 22:56:00
7:56 PM,77.0,69.1,76,30.04,10.0,SE,9.2,-,N/A,,Mostly Cloudy,130,2013-05-19 23:56:00
8:56 PM,75.9,66.9,74,30.06,10.0,ESE,8.1,-,N/A,,Mostly Cloudy,120,2013-05-20 00:56:00
9:29 PM,75.2,66.2,73,30.06,10.0,SSE,5.8,-,N/A,Thunderstorm,Thunderstorm,150,2013-05-20 01:29:00
9:56 PM,75.0,68.0,79,30.12,10.0,NNW,10.4,-,N/A,Thunderstorm,Thunderstorm,330,2013-05-20 01:56:00
10:28 PM,73.4,69.8,88,30.11,10.0,NNW,4.6,-,N/A,,Overcast,330,2013-05-20 02:28:00
10:38 PM,73.4,69.8,88,30.11,10.0,Calm,Calm,-,N/A,Thunderstorm,Thunderstorm,0,2013-05-20 02:38:00
10:56 PM,72.0,69.1,91,30.11,10.0,Calm,Calm,-,0.00,Rain-Thunderstorm,Light Thunderstorms and Rain,0,2013-05-20 02:56:00
11:56 PM,70.0,68.0,93,30.09,10.0,SSE,6.9,-,0.06,Rain-Thunderstorm,Light Thunderstorms and Rain,160,2013-05-20 03:56:00